Airfield :
LOGIN :

Register | Disclaimer

   EN    FR    IT 

 










Legend :    VFR   Marginal VFR   IFR   Intensive IFR   Very Intensive IFR
Visi :
Ceiling :
>= 8 km
>= 3000ft
5 to 8 km
1000 to 3000 ft
1500m to 5 km
500 to 1000 ft
800 to 1500m
200 to 500 ft
< 800m
< 200 ft
Symbols :   Thunderstorms  Fog  Heavy snow  Heavy precipitations  Wind > 20 kt
SIGMETs :     Misc.  Thunderstorms  Icing  Turbulence  Mountain Waves  Volcanic Ashes






- Airport Elevation : 1046 ft
- IATA code : NUE


EDDN - Nuremberg

CURRENT METAR :
  • 290750Z AUTO 09005KT 5000 BR OVC007 04/03 Q1016 TEMPO 4000 -DZ

EXPIRED METARs :
  • 290720Z AUTO 09005KT 4600 BR OVC007 04/03 Q1016 TEMPO 6000
  • 290650Z AUTO 10005KT 5000 BR BKN008 04/03 Q1015 TEMPO 3000 -DZ
  • 290620Z AUTO 10005KT 4300 -DZ BR OVC008 04/03 Q1015 REDZ TEMPO 5000
  • 290550Z AUTO 09004KT 4700 -DZ BR BKN009 04/03 Q1015 REDZ TEMPO 5000
  • 290520Z AUTO 09004KT 4200 DZ BR FEW004 OVC011 03/03 Q1015 TEMPO 5000 NSW
  • 290450Z AUTO 10005KT 5000 -DZ BR OVC013 03/03 Q1015

TAF COR TAF EDDN
Valid from the 29 at 06:00 until the 30 at 06:00 UTC


290547Z 2906/3006 09004KT 7000 BKN015 OVC030
TEMPO 2906/2921 4500 -RADZ BR BKN010
PROB30
TEMPO 2906/3006 BKN007



MET'MAP, your aeronautical weather chart ! - Copyright ORBIFLY December 2007 - Disclaimer

ORBIFLY MET'MAP TEAM :

Programming & Development : Alexandra Zaïnal
Original concept : Baudouin d'Aumeries
Technical & hardware support : Manuel Goepfert
Assistance : Marc-Olivier Méhu




SOURCES & CREDITS :

   NOAA